sensor_id;sensor_type;location;lat;lon;timestamp;pressure;altitude;pressure_sealevel;temperature;humidity
10474;BME280;5284;50.446;7.904;2023-11-21T00:02:06;97732.94;;;7.84;100.00
10474;BME280;5284;50.446;7.904;2023-11-21T00:07:11;97739.94;;;7.85;100.00
10474;BME280;5284;50.446;7.904;2023-11-21T00:12:14;97731.13;;;7.85;100.00
10474;BME280;5284;50.446;7.904;2023-11-21T00:17:17;97747.63;;;7.88;100.00
10474;BME280;5284;50.446;7.904;2023-11-21T00:22:23;97737.00;;;7.88;100.00
10474;BME280;5284;50.446;7.904;2023-11-21T00:27:25;97736.03;;;7.89;100.00
10474;BME280;5284;50.446;7.904;2023-11-21T00:32:28;97735.34;;;7.87;100.00
10474;BME280;5284;50.446;7.904;2023-11-21T00:37:33;97737.84;;;7.89;100.00
10474;BME280;5284;50.446;7.904;2023-11-21T00:42:36;97743.28;;;7.87;100.00
10474;BME280;5284;50.446;7.904;2023-11-21T00:47:40;97746.38;;;7.92;100.00
10474;BME280;5284;50.446;7.904;2023-11-21T00:52:46;97750.00;;;7.91;100.00
10474;BME280;5284;50.446;7.904;2023-11-21T00:57:49;97752.06;;;7.88;100.00
10474;BME280;5284;50.446;7.904;2023-11-21T01:02:52;97748.34;;;7.90;100.00
10474;BME280;5284;50.446;7.904;2023-11-21T01:07:56;97751.53;;;7.94;100.00
10474;BME280;5284;50.446;7.904;2023-11-21T01:13:00;97767.47;;;7.94;100.00
10474;BME280;5284;50.446;7.904;2023-11-21T01:18:04;97775.31;;;7.95;100.00
10474;BME280;5284;50.446;7.904;2023-11-21T01:23:09;97781.59;;;7.94;100.00
10474;BME280;5284;50.446;7.904;2023-11-21T01:28:12;97786.91;;;7.94;100.00
10474;BME280;5284;50.446;7.904;2023-11-21T01:33:16;97788.69;;;7.94;100.00
10474;BME280;5284;50.446;7.904;2023-11-21T01:38:22;97795.56;;;7.96;100.00
10474;BME280;5284;50.446;7.904;2023-11-21T01:43:24;97801.84;;;7.95;100.00
10474;BME280;5284;50.446;7.904;2023-11-21T01:48:27;97801.00;;;7.95;100.00
10474;BME280;5284;50.446;7.904;2023-11-21T01:53:32;97802.56;;;7.97;100.00
10474;BME280;5284;50.446;7.904;2023-11-21T01:58:35;97808.47;;;8.01;100.00
10474;BME280;5284;50.446;7.904;2023-11-21T02:03:38;97801.59;;;7.98;100.00
10474;BME280;5284;50.446;7.904;2023-11-21T02:08:43;97801.47;;;8.00;100.00
10474;BME280;5284;50.446;7.904;2023-11-21T02:13:46;97804.94;;;8.00;100.00
10474;BME280;5284;50.446;7.904;2023-11-21T02:18:51;97808.47;;;8.01;100.00
10474;BME280;5284;50.446;7.904;2023-11-21T02:23:57;97816.28;;;8.02;100.00
10474;BME280;5284;50.446;7.904;2023-11-21T02:29:00;97817.97;;;8.03;100.00
10474;BME280;5284;50.446;7.904;2023-11-21T02:34:06;97817.13;;;8.03;100.00
10474;BME280;5284;50.446;7.904;2023-11-21T02:39:10;97821.59;;;8.02;100.00
10474;BME280;5284;50.446;7.904;2023-11-21T02:44:13;97823.53;;;8.00;100.00
10474;BME280;5284;50.446;7.904;2023-11-21T02:49:18;97819.72;;;7.93;100.00
10474;BME280;5284;50.446;7.904;2023-11-21T02:54:22;97821.78;;;7.90;100.00
10474;BME280;5284;50.446;7.904;2023-11-21T02:59:25;97832.31;;;7.91;100.00
10474;BME280;5284;50.446;7.904;2023-11-21T03:04:28;97827.81;;;7.92;100.00
10474;BME280;5284;50.446;7.904;2023-11-21T03:09:32;97834.25;;;7.89;100.00
10474;BME280;5284;50.446;7.904;2023-11-21T03:14:35;97839.56;;;7.89;100.00
10474;BME280;5284;50.446;7.904;2023-11-21T03:19:38;97844.16;;;7.87;100.00
10474;BME280;5284;50.446;7.904;2023-11-21T03:24:42;97846.81;;;7.87;100.00
10474;BME280;5284;50.446;7.904;2023-11-21T03:29:45;97863.72;;;7.86;100.00
10474;BME280;5284;50.446;7.904;2023-11-21T03:34:57;97866.47;;;7.85;100.00
10474;BME280;5284;50.446;7.904;2023-11-21T03:40:03;97859.50;;;7.84;100.00
10474;BME280;5284;50.446;7.904;2023-11-21T03:45:08;97866.47;;;7.85;100.00
10474;BME280;5284;50.446;7.904;2023-11-21T03:50:11;97870.09;;;7.84;100.00
10474;BME280;5284;50.446;7.904;2023-11-21T03:55:15;97867.56;;;7.82;100.00
10474;BME280;5284;50.446;7.904;2023-11-21T04:00:20;97885.19;;;7.83;100.00
10474;BME280;5284;50.446;7.904;2023-11-21T04:05:23;97889.78;;;7.81;100.00
10474;BME280;5284;50.446;7.904;2023-11-21T04:10:28;97894.38;;;7.79;100.00
10474;BME280;5284;50.446;7.904;2023-11-21T04:15:31;97895.59;;;7.75;100.00
10474;BME280;5284;50.446;7.904;2023-11-21T04:20:34;97897.28;;;7.76;100.00
10474;BME280;5284;50.446;7.904;2023-11-21T04:25:39;97904.69;;;7.73;100.00
10474;BME280;5284;50.446;7.904;2023-11-21T04:30:42;97917.69;;;7.76;100.00
10474;BME280;5284;50.446;7.904;2023-11-21T04:35:45;97922.66;;;7.69;100.00
10474;BME280;5284;50.446;7.904;2023-11-21T04:40:49;97929.78;;;7.69;100.00
10474;BME280;5284;50.446;7.904;2023-11-21T04:45:54;97934.38;;;7.67;100.00
10474;BME280;5284;50.446;7.904;2023-11-21T04:50:58;97935.22;;;7.67;100.00
10474;BME280;5284;50.446;7.904;2023-11-21T04:56:02;97954.16;;;7.63;100.00
10474;BME280;5284;50.446;7.904;2023-11-21T05:01:07;97945.63;;;7.59;100.00
10474;BME280;5284;50.446;7.904;2023-11-21T05:06:10;97963.34;;;7.59;100.00
10474;BME280;5284;50.446;7.904;2023-11-21T05:11:24;97965.16;;;7.58;100.00
10474;BME280;5284;50.446;7.904;2023-11-21T05:16:28;97965.41;;;7.55;100.00
10474;BME280;5284;50.446;7.904;2023-11-21T05:21:31;97968.06;;;7.55;100.00
10474;BME280;5284;50.446;7.904;2023-11-21T05:26:36;97978.53;;;7.57;100.00
10474;BME280;5284;50.446;7.904;2023-11-21T05:31:40;97987.00;;;7.51;100.00
10474;BME280;5284;50.446;7.904;2023-11-21T05:36:44;97986.19;;;7.51;100.00
10474;BME280;5284;50.446;7.904;2023-11-21T05:41:49;97987.38;;;7.47;100.00
10474;BME280;5284;50.446;7.904;2023-11-21T05:46:53;97996.28;;;7.46;100.00
10474;BME280;5284;50.446;7.904;2023-11-21T05:51:56;97998.38;;;7.42;100.00
10474;BME280;5284;50.446;7.904;2023-11-21T05:57:04;97997.53;;;7.42;100.00
10474;BME280;5284;50.446;7.904;2023-11-21T06:02:07;97999.19;;;7.43;100.00
10474;BME280;5284;50.446;7.904;2023-11-21T06:07:11;98001.84;;;7.43;100.00
10474;BME280;5284;50.446;7.904;2023-11-21T06:12:15;98004.41;;;7.44;100.00
10474;BME280;5284;50.446;7.904;2023-11-21T06:17:18;98009.56;;;7.46;100.00
10474;BME280;5284;50.446;7.904;2023-11-21T06:22:22;98021.13;;;7.45;100.00
10474;BME280;5284;50.446;7.904;2023-11-21T06:27:26;98034.66;;;7.42;100.00
10474;BME280;5284;50.446;7.904;2023-11-21T06:32:29;98043.72;;;7.39;100.00
10474;BME280;5284;50.446;7.904;2023-11-21T06:37:33;98051.69;;;7.39;100.00
10474;BME280;5284;50.446;7.904;2023-11-21T06:42:37;98067.59;;;7.39;100.00
10474;BME280;5284;50.446;7.904;2023-11-21T06:47:41;98072.03;;;7.39;100.00
10474;BME280;5284;50.446;7.904;2023-11-21T06:52:44;98077.34;;;7.39;100.00
10474;BME280;5284;50.446;7.904;2023-11-21T06:57:49;98086.88;;;7.41;100.00
10474;BME280;5284;50.446;7.904;2023-11-21T07:02:53;98097.84;;;7.37;100.00
10474;BME280;5284;50.446;7.904;2023-11-21T07:07:56;98104.97;;;7.36;100.00
10474;BME280;5284;50.446;7.904;2023-11-21T07:13:07;98111.97;;;7.37;100.00
10474;BME280;5284;50.446;7.904;2023-11-21T07:18:14;98118.09;;;7.38;100.00
10474;BME280;5284;50.446;7.904;2023-11-21T07:23:17;98134.88;;;7.38;100.00
10474;BME280;5284;50.446;7.904;2023-11-21T07:28:22;98136.06;;;7.45;100.00
10474;BME280;5284;50.446;7.904;2023-11-21T07:33:25;98145.47;;;7.49;100.00
10474;BME280;5284;50.446;7.904;2023-11-21T07:38:28;98157.50;;;7.53;100.00
10474;BME280;5284;50.446;7.904;2023-11-21T07:43:32;98158.59;;;7.61;100.00
10474;BME280;5284;50.446;7.904;2023-11-21T07:48:37;98154.50;;;7.68;100.00
10474;BME280;5284;50.446;7.904;2023-11-21T07:53:40;98173.94;;;7.69;100.00
10474;BME280;5284;50.446;7.904;2023-11-21T07:58:44;98182.22;;;7.75;100.00
10474;BME280;5284;50.446;7.904;2023-11-21T08:03:47;98186.22;;;7.81;100.00
10474;BME280;5284;50.446;7.904;2023-11-21T08:08:53;98195.63;;;7.85;100.00
10474;BME280;5284;50.446;7.904;2023-11-21T08:13:57;98194.03;;;7.93;100.00
10474;BME280;5284;50.446;7.904;2023-11-21T08:19:00;98200.53;;;8.00;100.00
10474;BME280;5284;50.446;7.904;2023-11-21T08:24:06;98208.50;;;8.00;100.00
10474;BME280;5284;50.446;7.904;2023-11-21T08:29:14;98208.88;;;8.07;100.00
10474;BME280;5284;50.446;7.904;2023-11-21T08:34:19;98211.28;;;8.10;100.00
10474;BME280;5284;50.446;7.904;2023-11-21T08:39:22;98217.16;;;8.13;100.00
10474;BME280;5284;50.446;7.904;2023-11-21T08:44:28;98211.88;;;8.24;100.00
10474;BME280;5284;50.446;7.904;2023-11-21T08:49:31;98207.63;;;8.33;100.00
10474;BME280;5284;50.446;7.904;2023-11-21T08:54:34;98213.53;;;8.36;100.00
10474;BME280;5284;50.446;7.904;2023-11-21T08:59:39;98216.81;;;8.40;100.00
10474;BME280;5284;50.446;7.904;2023-11-21T09:04:42;98226.31;;;8.53;100.00
10474;BME280;5284;50.446;7.904;2023-11-21T09:09:47;98233.16;;;8.56;100.00
10474;BME280;5284;50.446;7.904;2023-11-21T09:14:51;98239.69;;;8.52;100.00
10474;BME280;5284;50.446;7.904;2023-11-21T09:19:55;98239.59;;;8.53;100.00
10474;BME280;5284;50.446;7.904;2023-11-21T09:24:58;98246.34;;;8.57;100.00
10474;BME280;5284;50.446;7.904;2023-11-21T09:30:04;98253.81;;;8.63;100.00
10474;BME280;5284;50.446;7.904;2023-11-21T09:35:10;98266.50;;;8.60;100.00
10474;BME280;5284;50.446;7.904;2023-11-21T09:40:13;98266.84;;;8.66;100.00
10474;BME280;5284;50.446;7.904;2023-11-21T09:45:25;98282.19;;;8.63;100.00
10474;BME280;5284;50.446;7.904;2023-11-21T09:50:28;98301.03;;;8.71;100.00
10474;BME280;5284;50.446;7.904;2023-11-21T09:55:34;98294.34;;;8.76;100.00
10474;BME280;5284;50.446;7.904;2023-11-21T10:00:42;98303.69;;;8.71;100.00
10474;BME280;5284;50.446;7.904;2023-11-21T10:05:45;98310.19;;;8.78;100.00
10474;BME280;5284;50.446;7.904;2023-11-21T10:10:51;98308.34;;;8.89;100.00
10474;BME280;5284;50.446;7.904;2023-11-21T10:15:57;98303.81;;;9.01;100.00
10474;BME280;5284;50.446;7.904;2023-11-21T10:21:01;98308.09;;;9.23;100.00
10474;BME280;5284;50.446;7.904;2023-11-21T10:26:06;98317.00;;;9.54;100.00
10474;BME280;5284;50.446;7.904;2023-11-21T10:31:33;98312.72;;;9.62;100.00
10474;BME280;5284;50.446;7.904;2023-11-21T10:36:37;98316.41;;;9.71;100.00
10474;BME280;5284;50.446;7.904;2023-11-21T10:41:39;98313.09;;;9.78;100.00
10474;BME280;5284;50.446;7.904;2023-11-21T10:46:44;98316.59;;;9.79;100.00
10474;BME280;5284;50.446;7.904;2023-11-21T10:51:53;98317.72;;;9.76;100.00
10474;BME280;5284;50.446;7.904;2023-11-21T10:56:57;98320.66;;;9.73;100.00
10474;BME280;5284;50.446;7.904;2023-11-21T11:02:07;98327.97;;;9.81;100.00
10474;BME280;5284;50.446;7.904;2023-11-21T11:07:14;98319.91;;;9.92;100.00
10474;BME280;5284;50.446;7.904;2023-11-21T11:12:18;98325.16;;;10.23;100.00
10474;BME280;5284;50.446;7.904;2023-11-21T11:17:23;98322.84;;;10.39;100.00
10474;BME280;5284;50.446;7.904;2023-11-21T11:22:34;98319.44;;;10.37;100.00
10474;BME280;5284;50.446;7.904;2023-11-21T11:27:50;98309.06;;;10.34;100.00
10474;BME280;5284;50.446;7.904;2023-11-21T11:33:04;98309.47;;;10.30;100.00
10474;BME280;5284;50.446;7.904;2023-11-21T11:38:11;98314.16;;;10.17;100.00
10474;BME280;5284;50.446;7.904;2023-11-21T11:43:25;98319.66;;;9.95;100.00
10474;BME280;5284;50.446;7.904;2023-11-21T11:48:29;98325.78;;;10.06;100.00
10474;BME280;5284;50.446;7.904;2023-11-21T11:53:35;98327.97;;;10.01;100.00
10474;BME280;5284;50.446;7.904;2023-11-21T11:58:41;98347.13;;;9.95;100.00
10474;BME280;5284;50.446;7.904;2023-11-21T12:04:24;98332.91;;;10.06;100.00
10474;BME280;5284;50.446;7.904;2023-11-21T12:09:36;98335.47;;;10.17;100.00
10474;BME280;5284;50.446;7.904;2023-11-21T12:14:39;98341.34;;;10.11;100.00
10474;BME280;5284;50.446;7.904;2023-11-21T12:19:45;98338.94;;;10.08;100.00
10474;BME280;5284;50.446;7.904;2023-11-21T12:24:48;98334.59;;;10.07;100.00
10474;BME280;5284;50.446;7.904;2023-11-21T12:29:51;98343.53;;;10.26;100.00
10474;BME280;5284;50.446;7.904;2023-11-21T12:34:57;98351.72;;;10.04;100.00
10474;BME280;5284;50.446;7.904;2023-11-21T12:39:59;98358.63;;;9.96;100.00
10474;BME280;5284;50.446;7.904;2023-11-21T12:45:10;98368.44;;;9.95;100.00
10474;BME280;5284;50.446;7.904;2023-11-21T12:50:23;98367.72;;;9.93;100.00
10474;BME280;5284;50.446;7.904;2023-11-21T12:55:31;98373.03;;;9.93;100.00
10474;BME280;5284;50.446;7.904;2023-11-21T13:00:37;98374.91;;;9.82;100.00
10474;BME280;5284;50.446;7.904;2023-11-21T13:05:43;98381.94;;;9.83;100.00
10474;BME280;5284;50.446;7.904;2023-11-21T13:10:50;98380.56;;;9.68;100.00
10474;BME280;5284;50.446;7.904;2023-11-21T13:15:57;98381.91;;;9.73;100.00
10474;BME280;5284;50.446;7.904;2023-11-21T13:21:05;98389.66;;;9.65;100.00
10474;BME280;5284;50.446;7.904;2023-11-21T13:26:12;98386.09;;;9.55;100.00
10474;BME280;5284;50.446;7.904;2023-11-21T13:31:16;98400.41;;;9.43;100.00
10474;BME280;5284;50.446;7.904;2023-11-21T13:36:31;98404.22;;;9.30;100.00
10474;BME280;5284;50.446;7.904;2023-11-21T13:41:35;98404.84;;;9.22;100.00
10474;BME280;5284;50.446;7.904;2023-11-21T13:46:41;98402.13;;;9.33;100.00
10474;BME280;5284;50.446;7.904;2023-11-21T13:51:45;98405.84;;;9.42;100.00
10474;BME280;5284;50.446;7.904;2023-11-21T13:56:52;98406.31;;;9.47;100.00
10474;BME280;5284;50.446;7.904;2023-11-21T14:01:57;98425.59;;;9.39;100.00
10474;BME280;5284;50.446;7.904;2023-11-21T14:07:03;98422.44;;;9.45;100.00
10474;BME280;5284;50.446;7.904;2023-11-21T14:12:22;98421.47;;;9.46;100.00
10474;BME280;5284;50.446;7.904;2023-11-21T14:17:25;98427.97;;;9.53;100.00
10474;BME280;5284;50.446;7.904;2023-11-21T14:22:30;98432.31;;;9.54;100.00
10474;BME280;5284;50.446;7.904;2023-11-21T14:27:34;98424.94;;;9.47;100.00
10474;BME280;5284;50.446;7.904;2023-11-21T14:32:37;98425.19;;;9.44;100.00
10474;BME280;5284;50.446;7.904;2023-11-21T14:37:42;98437.53;;;9.45;100.00
10474;BME280;5284;50.446;7.904;2023-11-21T14:42:45;98445.94;;;9.29;100.00
10474;BME280;5284;50.446;7.904;2023-11-21T14:47:49;98447.75;;;9.29;100.00
10474;BME280;5284;50.446;7.904;2023-11-21T14:53:01;98458.66;;;9.26;100.00
10474;BME280;5284;50.446;7.904;2023-11-21T14:58:07;98450.94;;;9.23;100.00
10474;BME280;5284;50.446;7.904;2023-11-21T15:03:16;98464.69;;;9.17;100.00
10474;BME280;5284;50.446;7.904;2023-11-21T15:08:40;98473.91;;;9.13;100.00
10474;BME280;5284;50.446;7.904;2023-11-21T15:13:44;98484.31;;;9.05;100.00
10474;BME280;5284;50.446;7.904;2023-11-21T15:18:50;98487.84;;;9.06;100.00
10474;BME280;5284;50.446;7.904;2023-11-21T15:23:56;98483.94;;;8.99;100.00
10474;BME280;5284;50.446;7.904;2023-11-21T15:28:59;98492.56;;;8.91;100.00
10474;BME280;5284;50.446;7.904;2023-11-21T15:34:02;98497.41;;;8.86;100.00
10474;BME280;5284;50.446;7.904;2023-11-21T15:39:09;98499.91;;;8.77;100.00
10474;BME280;5284;50.446;7.904;2023-11-21T15:44:12;98501.25;;;8.71;100.00
10474;BME280;5284;50.446;7.904;2023-11-21T15:49:15;98505.84;;;8.69;100.00
10474;BME280;5284;50.446;7.904;2023-11-21T15:54:23;98506.91;;;8.67;100.00
10474;BME280;5284;50.446;7.904;2023-11-21T15:59:26;98515.25;;;8.62;100.00
10474;BME280;5284;50.446;7.904;2023-11-21T16:04:33;98516.69;;;8.55;100.00
10474;BME280;5284;50.446;7.904;2023-11-21T16:09:39;98518.84;;;8.50;100.00
10474;BME280;5284;50.446;7.904;2023-11-21T16:14:45;98527.19;;;8.46;100.00
10474;BME280;5284;50.446;7.904;2023-11-21T16:19:49;98531.03;;;8.42;100.00
10474;BME280;5284;50.446;7.904;2023-11-21T16:24:54;98531.03;;;8.42;100.00
10474;BME280;5284;50.446;7.904;2023-11-21T16:29:57;98542.00;;;8.37;100.00
10474;BME280;5284;50.446;7.904;2023-11-21T16:35:02;98559.66;;;8.38;100.00
10474;BME280;5284;50.446;7.904;2023-11-21T16:40:07;98561.56;;;8.36;100.00
10474;BME280;5284;50.446;7.904;2023-11-21T16:45:11;98569.69;;;8.35;100.00
10474;BME280;5284;50.446;7.904;2023-11-21T16:50:14;98579.44;;;8.34;100.00
10474;BME280;5284;50.446;7.904;2023-11-21T16:55:18;98575.97;;;8.34;100.00
10474;BME280;5284;50.446;7.904;2023-11-21T17:00:22;98586.69;;;8.32;100.00
10474;BME280;5284;50.446;7.904;2023-11-21T17:05:25;98588.38;;;8.33;100.00
10474;BME280;5284;50.446;7.904;2023-11-21T17:10:30;98586.69;;;8.32;100.00
10474;BME280;5284;50.446;7.904;2023-11-21T17:15:34;98598.16;;;8.33;100.00
10474;BME280;5284;50.446;7.904;2023-11-21T17:20:37;98612.19;;;8.35;100.00
10474;BME280;5284;50.446;7.904;2023-11-21T17:25:41;98624.50;;;8.36;100.00
10474;BME280;5284;50.446;7.904;2023-11-21T17:30:44;98626.31;;;8.35;100.00
10474;BME280;5284;50.446;7.904;2023-11-21T17:35:48;98637.91;;;8.34;100.00
10474;BME280;5284;50.446;7.904;2023-11-21T17:40:52;98634.28;;;8.35;100.00
10474;BME280;5284;50.446;7.904;2023-11-21T17:45:55;98634.19;;;8.37;100.00
10474;BME280;5284;50.446;7.904;2023-11-21T17:51:01;98637.66;;;8.37;100.00
10474;BME280;5284;50.446;7.904;2023-11-21T17:56:06;98649.16;;;8.38;100.00
10474;BME280;5284;50.446;7.904;2023-11-21T18:01:10;98652.78;;;8.37;100.00
10474;BME280;5284;50.446;7.904;2023-11-21T18:06:13;98653.84;;;8.34;100.00
10474;BME280;5284;50.446;7.904;2023-11-21T18:11:18;98652.38;;;8.30;100.00
10474;BME280;5284;50.446;7.904;2023-11-21T18:16:21;98656.72;;;8.31;100.00
10474;BME280;5284;50.446;7.904;2023-11-21T18:21:26;98679.16;;;8.27;100.00
10474;BME280;5284;50.446;7.904;2023-11-21T18:26:31;98691.59;;;8.27;100.00
10474;BME280;5284;50.446;7.904;2023-11-21T18:31:33;98704.13;;;8.25;100.00
10474;BME280;5284;50.446;7.904;2023-11-21T18:36:37;98711.88;;;8.28;100.00
10474;BME280;5284;50.446;7.904;2023-11-21T18:41:41;98727.81;;;8.28;100.00
10474;BME280;5284;50.446;7.904;2023-11-21T18:46:44;98731.44;;;8.27;100.00
10474;BME280;5284;50.446;7.904;2023-11-21T18:51:48;98735.91;;;8.26;100.00
10474;BME280;5284;50.446;7.904;2023-11-21T18:56:53;98750.16;;;8.25;100.00
10474;BME280;5284;50.446;7.904;2023-11-21T19:01:56;98771.41;;;8.25;100.00
10474;BME280;5284;50.446;7.904;2023-11-21T19:07:00;98781.31;;;8.23;100.00
10474;BME280;5284;50.446;7.904;2023-11-21T19:12:06;98798.06;;;8.24;100.00
10474;BME280;5284;50.446;7.904;2023-11-21T19:17:10;98812.75;;;8.04;100.00
10474;BME280;5284;50.446;7.904;2023-11-21T19:22:12;98830.72;;;7.76;100.00
10474;BME280;5284;50.446;7.904;2023-11-21T19:27:18;98831.13;;;7.57;100.00
10474;BME280;5284;50.446;7.904;2023-11-21T19:32:21;98844.06;;;7.37;100.00
10474;BME280;5284;50.446;7.904;2023-11-21T19:37:26;98854.00;;;7.34;100.00
10474;BME280;5284;50.446;7.904;2023-11-21T19:42:31;98863.09;;;7.17;100.00
10474;BME280;5284;50.446;7.904;2023-11-21T19:47:37;98879.34;;;6.99;100.00
10474;BME280;5284;50.446;7.904;2023-11-21T19:52:41;98878.19;;;7.03;100.00
10474;BME280;5284;50.446;7.904;2023-11-21T19:57:45;98894.94;;;6.77;100.00
10474;BME280;5284;50.446;7.904;2023-11-21T20:02:48;98899.88;;;6.69;100.00
10474;BME280;5284;50.446;7.904;2023-11-21T20:07:51;98907.28;;;6.64;100.00
10474;BME280;5284;50.446;7.904;2023-11-21T20:12:56;98910.31;;;6.44;100.00
10474;BME280;5284;50.446;7.904;2023-11-21T20:18:07;98920.00;;;6.31;100.00
10474;BME280;5284;50.446;7.904;2023-11-21T20:23:13;98915.56;;;6.31;100.00
10474;BME280;5284;50.446;7.904;2023-11-21T20:28:19;98934.94;;;6.32;100.00
10474;BME280;5284;50.446;7.904;2023-11-21T20:33:24;98941.25;;;6.15;100.00
10474;BME280;5284;50.446;7.904;2023-11-21T20:38:27;98953.75;;;6.13;100.00
10474;BME280;5284;50.446;7.904;2023-11-21T20:43:33;98952.31;;;5.94;100.00
10474;BME280;5284;50.446;7.904;2023-11-21T20:48:37;98954.19;;;5.92;100.00
10474;BME280;5284;50.446;7.904;2023-11-21T20:53:40;98963.25;;;5.88;100.00
10474;BME280;5284;50.446;7.904;2023-11-21T20:58:44;98965.72;;;5.91;100.00
10474;BME280;5284;50.446;7.904;2023-11-21T21:03:49;98983.50;;;5.74;100.00
10474;BME280;5284;50.446;7.904;2023-11-21T21:08:52;98988.03;;;5.72;100.00
10474;BME280;5284;50.446;7.904;2023-11-21T21:13:58;98992.75;;;5.67;100.00
10474;BME280;5284;50.446;7.904;2023-11-21T21:19:01;98991.69;;;5.69;100.00
10474;BME280;5284;50.446;7.904;2023-11-21T21:24:07;99003.75;;;5.59;100.00
10474;BME280;5284;50.446;7.904;2023-11-21T21:29:11;99011.44;;;5.64;100.00
10474;BME280;5284;50.446;7.904;2023-11-21T21:34:15;99012.63;;;5.58;100.00
10474;BME280;5284;50.446;7.904;2023-11-21T21:39:18;99016.56;;;5.51;100.00
10474;BME280;5284;50.446;7.904;2023-11-21T21:44:23;99021.09;;;5.49;100.00
10474;BME280;5284;50.446;7.904;2023-11-21T21:49:26;99035.69;;;5.56;100.00
10474;BME280;5284;50.446;7.904;2023-11-21T21:54:29;99033.78;;;5.58;100.00
10474;BME280;5284;50.446;7.904;2023-11-21T21:59:33;99054.38;;;5.53;100.00
10474;BME280;5284;50.446;7.904;2023-11-21T22:04:36;99056.84;;;5.56;100.00
10474;BME280;5284;50.446;7.904;2023-11-21T22:09:41;99063.31;;;5.51;100.00
10474;BME280;5284;50.446;7.904;2023-11-21T22:14:45;99056.44;;;5.48;100.00
10474;BME280;5284;50.446;7.904;2023-11-21T22:19:49;99062.56;;;5.49;100.00
10474;BME280;5284;50.446;7.904;2023-11-21T22:24:54;99086.09;;;5.53;100.00
10474;BME280;5284;50.446;7.904;2023-11-21T22:29:58;99083.38;;;5.55;100.00
10474;BME280;5284;50.446;7.904;2023-11-21T22:35:01;99102.81;;;5.54;100.00
10474;BME280;5284;50.446;7.904;2023-11-21T22:40:06;99107.34;;;5.52;100.00
10474;BME280;5284;50.446;7.904;2023-11-21T22:45:10;99115.19;;;5.53;100.00
10474;BME280;5284;50.446;7.904;2023-11-21T22:50:14;99126.03;;;5.49;100.00
10474;BME280;5284;50.446;7.904;2023-11-21T22:55:17;99129.38;;;5.52;100.00
10474;BME280;5284;50.446;7.904;2023-11-21T23:00:23;99133.78;;;5.36;100.00
10474;BME280;5284;50.446;7.904;2023-11-21T23:05:31;99136.00;;;5.28;100.00
10474;BME280;5284;50.446;7.904;2023-11-21T23:10:34;99138.03;;;5.23;100.00
10474;BME280;5284;50.446;7.904;2023-11-21T23:15:39;99140.50;;;5.26;100.00
10474;BME280;5284;50.446;7.904;2023-11-21T23:20:44;99148.78;;;5.20;100.00
10474;BME280;5284;50.446;7.904;2023-11-21T23:25:48;99150.81;;;5.15;100.00
10474;BME280;5284;50.446;7.904;2023-11-21T23:30:52;99157.28;;;5.10;100.00
10474;BME280;5284;50.446;7.904;2023-11-21T23:35:55;99153.94;;;5.06;100.00
10474;BME280;5284;50.446;7.904;2023-11-21T23:40:59;99151.72;;;4.99;100.00
10474;BME280;5284;50.446;7.904;2023-11-21T23:46:04;99155.53;;;4.93;100.00
10474;BME280;5284;50.446;7.904;2023-11-21T23:51:07;99150.63;;;4.86;100.00
10474;BME280;5284;50.446;7.904;2023-11-21T23:56:11;99147.94;;;4.87;100.00
